sensor_id;sensor_type;location;lat;lon;timestamp;P1;durP1;ratioP1;P2;durP2;ratioP2
33279;SDS011;20403;43.114;12.434;2023-03-31T00:01:23;12.65;;;3.20;;
33279;SDS011;20403;43.114;12.434;2023-03-31T00:03:49;19.27;;;3.22;;
33279;SDS011;20403;43.114;12.434;2023-03-31T00:06:15;14.15;;;3.10;;
33279;SDS011;20403;43.114;12.434;2023-03-31T00:08:43;19.48;;;3.42;;
33279;SDS011;20403;43.114;12.434;2023-03-31T00:11:10;15.93;;;3.08;;
33279;SDS011;20403;43.114;12.434;2023-03-31T00:13:36;17.05;;;3.03;;
33279;SDS011;20403;43.114;12.434;2023-03-31T00:16:03;15.70;;;3.65;;
33279;SDS011;20403;43.114;12.434;2023-03-31T00:18:30;19.40;;;3.22;;
33279;SDS011;20403;43.114;12.434;2023-03-31T00:21:09;16.23;;;3.72;;
33279;SDS011;20403;43.114;12.434;2023-03-31T00:23:49;15.75;;;3.22;;
33279;SDS011;20403;43.114;12.434;2023-03-31T00:26:15;12.07;;;2.78;;
33279;SDS011;20403;43.114;12.434;2023-03-31T00:28:40;18.00;;;2.95;;
33279;SDS011;20403;43.114;12.434;2023-03-31T00:31:06;13.98;;;3.28;;
33279;SDS011;20403;43.114;12.434;2023-03-31T00:33:31;18.52;;;3.13;;
33279;SDS011;20403;43.114;12.434;2023-03-31T00:35:57;13.77;;;3.10;;
33279;SDS011;20403;43.114;12.434;2023-03-31T00:38:26;27.70;;;4.28;;
33279;SDS011;20403;43.114;12.434;2023-03-31T00:40:53;8.45;;;2.88;;
33279;SDS011;20403;43.114;12.434;2023-03-31T00:43:23;18.77;;;3.30;;
33279;SDS011;20403;43.114;12.434;2023-03-31T00:45:49;21.15;;;3.35;;
33279;SDS011;20403;43.114;12.434;2023-03-31T00:48:15;18.83;;;3.35;;
33279;SDS011;20403;43.114;12.434;2023-03-31T00:50:52;21.63;;;3.50;;
33279;SDS011;20403;43.114;12.434;2023-03-31T00:53:20;13.45;;;3.10;;
33279;SDS011;20403;43.114;12.434;2023-03-31T00:55:53;23.25;;;3.20;;
33279;SDS011;20403;43.114;12.434;2023-03-31T00:58:23;17.92;;;3.22;;
33279;SDS011;20403;43.114;12.434;2023-03-31T01:00:52;17.08;;;3.22;;
33279;SDS011;20403;43.114;12.434;2023-03-31T01:03:19;10.18;;;3.15;;
33279;SDS011;20403;43.114;12.434;2023-03-31T01:08:15;14.88;;;2.50;;
33279;SDS011;20403;43.114;12.434;2023-03-31T01:10:44;21.60;;;3.85;;
33279;SDS011;20403;43.114;12.434;2023-03-31T01:13:13;15.98;;;3.30;;
33279;SDS011;20403;43.114;12.434;2023-03-31T01:15:40;20.80;;;3.50;;
33279;SDS011;20403;43.114;12.434;2023-03-31T01:18:06;18.30;;;3.58;;
33279;SDS011;20403;43.114;12.434;2023-03-31T01:26:10;21.63;;;4.03;;
33279;SDS011;20403;43.114;12.434;2023-03-31T01:31:47;23.45;;;3.88;;
33279;SDS011;20403;43.114;12.434;2023-03-31T01:34:40;16.00;;;3.67;;
33279;SDS011;20403;43.114;12.434;2023-03-31T01:48:09;21.77;;;3.92;;
33279;SDS011;20403;43.114;12.434;2023-03-31T01:56:17;18.52;;;4.63;;
33279;SDS011;20403;43.114;12.434;2023-03-31T01:58:50;14.68;;;3.40;;
33279;SDS011;20403;43.114;12.434;2023-03-31T02:04:17;16.95;;;3.22;;
33279;SDS011;20403;43.114;12.434;2023-03-31T02:06:47;19.75;;;3.13;;
33279;SDS011;20403;43.114;12.434;2023-03-31T02:09:21;16.17;;;3.20;;
33279;SDS011;20403;43.114;12.434;2023-03-31T02:11:51;18.13;;;3.65;;
33279;SDS011;20403;43.114;12.434;2023-03-31T02:14:21;15.95;;;3.15;;
33279;SDS011;20403;43.114;12.434;2023-03-31T02:16:51;15.43;;;2.75;;
33279;SDS011;20403;43.114;12.434;2023-03-31T02:19:22;17.02;;;2.80;;
33279;SDS011;20403;43.114;12.434;2023-03-31T02:21:51;17.30;;;3.10;;
33279;SDS011;20403;43.114;12.434;2023-03-31T02:24:19;17.25;;;3.17;;
33279;SDS011;20403;43.114;12.434;2023-03-31T02:29:53;14.48;;;3.20;;
33279;SDS011;20403;43.114;12.434;2023-03-31T02:32:41;14.82;;;3.53;;
33279;SDS011;20403;43.114;12.434;2023-03-31T02:35:11;21.65;;;4.25;;
33279;SDS011;20403;43.114;12.434;2023-03-31T02:37:39;21.38;;;4.43;;
33279;SDS011;20403;43.114;12.434;2023-03-31T02:40:07;15.45;;;3.13;;
33279;SDS011;20403;43.114;12.434;2023-03-31T02:42:38;25.30;;;4.28;;
33279;SDS011;20403;43.114;12.434;2023-03-31T02:45:06;13.98;;;3.67;;
33279;SDS011;20403;43.114;12.434;2023-03-31T02:48:05;16.08;;;3.35;;
33279;SDS011;20403;43.114;12.434;2023-03-31T02:50:40;14.45;;;3.05;;
33279;SDS011;20403;43.114;12.434;2023-03-31T03:10:27;18.23;;;3.45;;
33279;SDS011;20403;43.114;12.434;2023-03-31T03:16:12;19.75;;;3.20;;
33279;SDS011;20403;43.114;12.434;2023-03-31T03:19:05;10.30;;;3.10;;
33279;SDS011;20403;43.114;12.434;2023-03-31T03:21:30;20.08;;;3.92;;
33279;SDS011;20403;43.114;12.434;2023-03-31T03:23:56;16.73;;;3.67;;
33279;SDS011;20403;43.114;12.434;2023-03-31T03:26:24;20.98;;;4.28;;
33279;SDS011;20403;43.114;12.434;2023-03-31T03:28:52;20.85;;;3.85;;
33279;SDS011;20403;43.114;12.434;2023-03-31T03:31:19;20.38;;;3.65;;
33279;SDS011;20403;43.114;12.434;2023-03-31T03:33:47;18.42;;;4.05;;
33279;SDS011;20403;43.114;12.434;2023-03-31T03:36:13;17.50;;;3.88;;
33279;SDS011;20403;43.114;12.434;2023-03-31T03:38:39;19.85;;;4.13;;
33279;SDS011;20403;43.114;12.434;2023-03-31T03:41:05;18.52;;;3.40;;
33279;SDS011;20403;43.114;12.434;2023-03-31T03:43:30;13.68;;;3.40;;
33279;SDS011;20403;43.114;12.434;2023-03-31T03:45:56;15.13;;;3.03;;
33279;SDS011;20403;43.114;12.434;2023-03-31T03:48:21;23.13;;;2.80;;
33279;SDS011;20403;43.114;12.434;2023-03-31T03:50:47;13.15;;;3.03;;
33279;SDS011;20403;43.114;12.434;2023-03-31T03:53:13;17.85;;;3.47;;
33279;SDS011;20403;43.114;12.434;2023-03-31T03:55:39;11.55;;;2.60;;
33279;SDS011;20403;43.114;12.434;2023-03-31T03:58:05;15.70;;;2.80;;
33279;SDS011;20403;43.114;12.434;2023-03-31T04:00:30;18.23;;;4.07;;
33279;SDS011;20403;43.114;12.434;2023-03-31T04:02:56;13.38;;;2.90;;
33279;SDS011;20403;43.114;12.434;2023-03-31T04:05:21;19.25;;;3.05;;
33279;SDS011;20403;43.114;12.434;2023-03-31T04:07:47;14.63;;;3.70;;
33279;SDS011;20403;43.114;12.434;2023-03-31T04:10:12;13.95;;;3.35;;
33279;SDS011;20403;43.114;12.434;2023-03-31T04:12:38;17.98;;;3.10;;
33279;SDS011;20403;43.114;12.434;2023-03-31T04:15:04;13.80;;;3.05;;
33279;SDS011;20403;43.114;12.434;2023-03-31T04:17:29;19.20;;;4.15;;
33279;SDS011;20403;43.114;12.434;2023-03-31T04:20:02;13.18;;;3.00;;
33279;SDS011;20403;43.114;12.434;2023-03-31T04:22:31;14.15;;;3.67;;
33279;SDS011;20403;43.114;12.434;2023-03-31T04:25:04;16.40;;;3.20;;
33279;SDS011;20403;43.114;12.434;2023-03-31T04:27:34;17.13;;;3.20;;
33279;SDS011;20403;43.114;12.434;2023-03-31T04:30:00;24.63;;;3.40;;
33279;SDS011;20403;43.114;12.434;2023-03-31T04:32:25;16.33;;;2.97;;
33279;SDS011;20403;43.114;12.434;2023-03-31T04:34:52;19.60;;;3.72;;
33279;SDS011;20403;43.114;12.434;2023-03-31T04:37:27;17.10;;;3.55;;
33279;SDS011;20403;43.114;12.434;2023-03-31T04:39:58;22.17;;;3.50;;
33279;SDS011;20403;43.114;12.434;2023-03-31T04:42:31;13.63;;;3.05;;
33279;SDS011;20403;43.114;12.434;2023-03-31T04:44:57;13.15;;;3.00;;
33279;SDS011;20403;43.114;12.434;2023-03-31T04:47:22;13.48;;;3.00;;
33279;SDS011;20403;43.114;12.434;2023-03-31T04:49:47;21.52;;;3.42;;
33279;SDS011;20403;43.114;12.434;2023-03-31T04:52:13;17.60;;;3.75;;
33279;SDS011;20403;43.114;12.434;2023-03-31T04:54:38;27.40;;;6.53;;
33279;SDS011;20403;43.114;12.434;2023-03-31T04:57:03;21.52;;;3.90;;
33279;SDS011;20403;43.114;12.434;2023-03-31T04:59:29;16.15;;;3.65;;
33279;SDS011;20403;43.114;12.434;2023-03-31T05:01:54;21.00;;;3.42;;
33279;SDS011;20403;43.114;12.434;2023-03-31T05:04:20;16.83;;;3.38;;
33279;SDS011;20403;43.114;12.434;2023-03-31T05:06:45;15.90;;;4.10;;
33279;SDS011;20403;43.114;12.434;2023-03-31T05:09:11;10.93;;;3.33;;
33279;SDS011;20403;43.114;12.434;2023-03-31T05:11:36;29.90;;;4.75;;
33279;SDS011;20403;43.114;12.434;2023-03-31T05:14:02;20.75;;;3.10;;
33279;SDS011;20403;43.114;12.434;2023-03-31T05:16:27;21.90;;;3.95;;
33279;SDS011;20403;43.114;12.434;2023-03-31T05:18:53;15.80;;;4.05;;
33279;SDS011;20403;43.114;12.434;2023-03-31T05:21:19;20.50;;;4.63;;
33279;SDS011;20403;43.114;12.434;2023-03-31T05:23:45;11.85;;;3.00;;
33279;SDS011;20403;43.114;12.434;2023-03-31T05:26:11;14.32;;;3.08;;
33279;SDS011;20403;43.114;12.434;2023-03-31T05:28:37;17.20;;;3.42;;
33279;SDS011;20403;43.114;12.434;2023-03-31T05:31:04;17.23;;;3.78;;
33279;SDS011;20403;43.114;12.434;2023-03-31T05:33:31;20.40;;;3.45;;
33279;SDS011;20403;43.114;12.434;2023-03-31T05:35:57;19.75;;;3.15;;
33279;SDS011;20403;43.114;12.434;2023-03-31T05:38:26;15.63;;;3.90;;
33279;SDS011;20403;43.114;12.434;2023-03-31T05:40:55;24.65;;;4.45;;
33279;SDS011;20403;43.114;12.434;2023-03-31T05:43:21;20.08;;;4.13;;
33279;SDS011;20403;43.114;12.434;2023-03-31T05:45:46;33.42;;;4.28;;
33279;SDS011;20403;43.114;12.434;2023-03-31T05:48:12;21.55;;;3.95;;
33279;SDS011;20403;43.114;12.434;2023-03-31T05:50:37;18.27;;;4.32;;
33279;SDS011;20403;43.114;12.434;2023-03-31T05:53:03;12.60;;;3.40;;
33279;SDS011;20403;43.114;12.434;2023-03-31T05:55:28;23.10;;;3.45;;
33279;SDS011;20403;43.114;12.434;2023-03-31T05:57:53;21.15;;;4.03;;
33279;SDS011;20403;43.114;12.434;2023-03-31T06:00:19;25.60;;;5.35;;
33279;SDS011;20403;43.114;12.434;2023-03-31T06:02:44;16.48;;;3.70;;
33279;SDS011;20403;43.114;12.434;2023-03-31T06:05:10;15.48;;;4.00;;
33279;SDS011;20403;43.114;12.434;2023-03-31T06:07:36;18.15;;;4.82;;
33279;SDS011;20403;43.114;12.434;2023-03-31T06:10:02;20.63;;;4.68;;
33279;SDS011;20403;43.114;12.434;2023-03-31T06:12:27;14.20;;;4.40;;
33279;SDS011;20403;43.114;12.434;2023-03-31T06:14:53;16.38;;;4.65;;
33279;SDS011;20403;43.114;12.434;2023-03-31T06:17:18;24.35;;;4.07;;
33279;SDS011;20403;43.114;12.434;2023-03-31T06:19:43;12.63;;;3.85;;
33279;SDS011;20403;43.114;12.434;2023-03-31T06:22:09;19.38;;;4.20;;
33279;SDS011;20403;43.114;12.434;2023-03-31T06:24:34;21.00;;;4.47;;
33279;SDS011;20403;43.114;12.434;2023-03-31T06:27:00;27.88;;;4.50;;
33279;SDS011;20403;43.114;12.434;2023-03-31T06:29:26;21.05;;;4.40;;
33279;SDS011;20403;43.114;12.434;2023-03-31T06:31:51;14.93;;;4.57;;
33279;SDS011;20403;43.114;12.434;2023-03-31T06:34:17;20.55;;;4.53;;
33279;SDS011;20403;43.114;12.434;2023-03-31T06:36:42;27.63;;;5.57;;
33279;SDS011;20403;43.114;12.434;2023-03-31T06:39:07;15.45;;;4.18;;
33279;SDS011;20403;43.114;12.434;2023-03-31T06:41:33;15.48;;;3.40;;
33279;SDS011;20403;43.114;12.434;2023-03-31T06:43:58;20.13;;;4.90;;
33279;SDS011;20403;43.114;12.434;2023-03-31T06:46:24;17.38;;;4.47;;
33279;SDS011;20403;43.114;12.434;2023-03-31T06:48:49;22.67;;;4.40;;
33279;SDS011;20403;43.114;12.434;2023-03-31T06:51:15;29.85;;;4.82;;
33279;SDS011;20403;43.114;12.434;2023-03-31T06:53:40;24.33;;;4.53;;
33279;SDS011;20403;43.114;12.434;2023-03-31T06:56:06;17.52;;;4.05;;
33279;SDS011;20403;43.114;12.434;2023-03-31T06:58:31;22.05;;;4.43;;
33279;SDS011;20403;43.114;12.434;2023-03-31T07:00:57;17.52;;;4.40;;
33279;SDS011;20403;43.114;12.434;2023-03-31T07:03:23;12.60;;;3.33;;
33279;SDS011;20403;43.114;12.434;2023-03-31T07:05:49;16.73;;;4.35;;
33279;SDS011;20403;43.114;12.434;2023-03-31T07:08:16;16.80;;;4.18;;
33279;SDS011;20403;43.114;12.434;2023-03-31T07:10:42;15.02;;;3.97;;
33279;SDS011;20403;43.114;12.434;2023-03-31T07:13:11;11.57;;;3.22;;
33279;SDS011;20403;43.114;12.434;2023-03-31T07:15:36;13.05;;;3.47;;
33279;SDS011;20403;43.114;12.434;2023-03-31T07:18:02;19.73;;;4.15;;
33279;SDS011;20403;43.114;12.434;2023-03-31T07:20:28;16.35;;;4.35;;
33279;SDS011;20403;43.114;12.434;2023-03-31T07:22:54;26.23;;;4.18;;
33279;SDS011;20403;43.114;12.434;2023-03-31T07:25:20;17.42;;;4.03;;
33279;SDS011;20403;43.114;12.434;2023-03-31T07:27:46;17.52;;;3.88;;
33279;SDS011;20403;43.114;12.434;2023-03-31T07:30:15;21.13;;;4.10;;
33279;SDS011;20403;43.114;12.434;2023-03-31T07:32:42;15.32;;;3.80;;
33279;SDS011;20403;43.114;12.434;2023-03-31T07:35:10;17.45;;;4.00;;
33279;SDS011;20403;43.114;12.434;2023-03-31T07:37:38;27.73;;;4.65;;
33279;SDS011;20403;43.114;12.434;2023-03-31T07:40:06;43.17;;;5.45;;
33279;SDS011;20403;43.114;12.434;2023-03-31T07:42:33;15.75;;;4.15;;
33279;SDS011;20403;43.114;12.434;2023-03-31T07:44:59;17.50;;;4.60;;
33279;SDS011;20403;43.114;12.434;2023-03-31T07:47:25;17.00;;;5.45;;
33279;SDS011;20403;43.114;12.434;2023-03-31T07:49:51;24.35;;;4.40;;
33279;SDS011;20403;43.114;12.434;2023-03-31T07:52:17;30.90;;;4.45;;
33279;SDS011;20403;43.114;12.434;2023-03-31T07:54:44;16.67;;;4.93;;
33279;SDS011;20403;43.114;12.434;2023-03-31T07:57:12;16.35;;;4.57;;
33279;SDS011;20403;43.114;12.434;2023-03-31T07:59:38;15.30;;;4.30;;
33279;SDS011;20403;43.114;12.434;2023-03-31T08:02:03;17.60;;;4.75;;
33279;SDS011;20403;43.114;12.434;2023-03-31T08:04:29;15.57;;;4.32;;
33279;SDS011;20403;43.114;12.434;2023-03-31T08:06:54;32.05;;;6.80;;
33279;SDS011;20403;43.114;12.434;2023-03-31T08:09:20;19.85;;;3.53;;
33279;SDS011;20403;43.114;12.434;2023-03-31T08:11:46;12.63;;;3.88;;
33279;SDS011;20403;43.114;12.434;2023-03-31T08:14:12;18.15;;;4.80;;
33279;SDS011;20403;43.114;12.434;2023-03-31T08:16:38;23.85;;;4.32;;
33279;SDS011;20403;43.114;12.434;2023-03-31T08:19:03;10.88;;;3.45;;
33279;SDS011;20403;43.114;12.434;2023-03-31T08:21:28;21.77;;;4.22;;
33279;SDS011;20403;43.114;12.434;2023-03-31T08:23:54;18.35;;;4.13;;
33279;SDS011;20403;43.114;12.434;2023-03-31T08:26:20;17.52;;;4.40;;
33279;SDS011;20403;43.114;12.434;2023-03-31T08:28:48;18.98;;;4.40;;
33279;SDS011;20403;43.114;12.434;2023-03-31T08:31:14;19.92;;;3.95;;
33279;SDS011;20403;43.114;12.434;2023-03-31T08:33:42;17.02;;;3.88;;
33279;SDS011;20403;43.114;12.434;2023-03-31T08:36:08;14.25;;;3.83;;
33279;SDS011;20403;43.114;12.434;2023-03-31T08:38:38;20.00;;;4.13;;
33279;SDS011;20403;43.114;12.434;2023-03-31T08:44:17;17.08;;;4.28;;
33279;SDS011;20403;43.114;12.434;2023-03-31T08:46:44;17.55;;;4.22;;
33279;SDS011;20403;43.114;12.434;2023-03-31T08:49:15;23.25;;;4.15;;
33279;SDS011;20403;43.114;12.434;2023-03-31T08:51:48;13.00;;;3.42;;
33279;SDS011;20403;43.114;12.434;2023-03-31T08:57:10;25.63;;;3.95;;
33279;SDS011;20403;43.114;12.434;2023-03-31T08:59:40;19.83;;;4.25;;
33279;SDS011;20403;43.114;12.434;2023-03-31T09:02:20;14.77;;;3.47;;
33279;SDS011;20403;43.114;12.434;2023-03-31T09:05:00;16.85;;;3.67;;
33279;SDS011;20403;43.114;12.434;2023-03-31T09:07:45;14.00;;;3.00;;
33279;SDS011;20403;43.114;12.434;2023-03-31T09:10:19;19.92;;;4.32;;
33279;SDS011;20403;43.114;12.434;2023-03-31T09:17:49;29.70;;;4.90;;
33279;SDS011;20403;43.114;12.434;2023-03-31T09:20:21;15.48;;;3.97;;
33279;SDS011;20403;43.114;12.434;2023-03-31T09:22:54;20.45;;;4.35;;
33279;SDS011;20403;43.114;12.434;2023-03-31T09:25:33;16.08;;;3.95;;
33279;SDS011;20403;43.114;12.434;2023-03-31T09:28:02;19.38;;;3.97;;
33279;SDS011;20403;43.114;12.434;2023-03-31T09:30:33;23.70;;;3.95;;
33279;SDS011;20403;43.114;12.434;2023-03-31T09:33:10;22.35;;;5.22;;
33279;SDS011;20403;43.114;12.434;2023-03-31T09:35:40;12.98;;;4.18;;
33279;SDS011;20403;43.114;12.434;2023-03-31T09:38:05;25.58;;;5.15;;
33279;SDS011;20403;43.114;12.434;2023-03-31T09:40:33;14.52;;;4.72;;
33279;SDS011;20403;43.114;12.434;2023-03-31T09:43:09;20.33;;;5.13;;
33279;SDS011;20403;43.114;12.434;2023-03-31T09:45:39;22.17;;;4.85;;
33279;SDS011;20403;43.114;12.434;2023-03-31T09:48:11;17.95;;;4.70;;
33279;SDS011;20403;43.114;12.434;2023-03-31T09:50:50;24.05;;;5.43;;
33279;SDS011;20403;43.114;12.434;2023-03-31T09:56:30;17.40;;;3.95;;
33279;SDS011;20403;43.114;12.434;2023-03-31T09:59:00;20.23;;;4.75;;
33279;SDS011;20403;43.114;12.434;2023-03-31T10:01:26;16.40;;;4.35;;
33279;SDS011;20403;43.114;12.434;2023-03-31T10:03:53;25.98;;;4.30;;
33279;SDS011;20403;43.114;12.434;2023-03-31T10:06:20;12.73;;;3.95;;
33279;SDS011;20403;43.114;12.434;2023-03-31T10:11:15;14.63;;;3.30;;
33279;SDS011;20403;43.114;12.434;2023-03-31T10:13:43;17.60;;;4.50;;
33279;SDS011;20403;43.114;12.434;2023-03-31T10:16:12;21.10;;;5.07;;
33279;SDS011;20403;43.114;12.434;2023-03-31T10:18:52;26.50;;;4.32;;
33279;SDS011;20403;43.114;12.434;2023-03-31T10:21:27;17.73;;;4.22;;
33279;SDS011;20403;43.114;12.434;2023-03-31T10:24:00;17.00;;;3.78;;
33279;SDS011;20403;43.114;12.434;2023-03-31T10:26:33;11.73;;;3.45;;
33279;SDS011;20403;43.114;12.434;2023-03-31T10:28:58;13.90;;;4.00;;
33279;SDS011;20403;43.114;12.434;2023-03-31T10:31:25;14.80;;;4.00;;
33279;SDS011;20403;43.114;12.434;2023-03-31T10:33:51;22.67;;;4.43;;
33279;SDS011;20403;43.114;12.434;2023-03-31T10:36:20;20.02;;;3.88;;
33279;SDS011;20403;43.114;12.434;2023-03-31T10:38:49;19.55;;;5.55;;
33279;SDS011;20403;43.114;12.434;2023-03-31T10:41:17;13.48;;;3.90;;
33279;SDS011;20403;43.114;12.434;2023-03-31T10:43:52;22.58;;;4.53;;
33279;SDS011;20403;43.114;12.434;2023-03-31T10:46:20;18.35;;;4.97;;
33279;SDS011;20403;43.114;12.434;2023-03-31T10:49:19;19.92;;;4.05;;
33279;SDS011;20403;43.114;12.434;2023-03-31T10:51:59;21.05;;;4.07;;
33279;SDS011;20403;43.114;12.434;2023-03-31T10:54:25;23.33;;;4.72;;
33279;SDS011;20403;43.114;12.434;2023-03-31T10:56:51;28.90;;;4.35;;
33279;SDS011;20403;43.114;12.434;2023-03-31T11:01:55;14.52;;;4.00;;
33279;SDS011;20403;43.114;12.434;2023-03-31T11:11:00;16.95;;;4.78;;
33279;SDS011;20403;43.114;12.434;2023-03-31T11:17:02;16.88;;;3.72;;
33279;SDS011;20403;43.114;12.434;2023-03-31T11:22:22;13.15;;;4.05;;
33279;SDS011;20403;43.114;12.434;2023-03-31T11:27:37;15.85;;;4.15;;
33279;SDS011;20403;43.114;12.434;2023-03-31T11:30:24;22.35;;;4.53;;
33279;SDS011;20403;43.114;12.434;2023-03-31T11:41:57;15.25;;;4.15;;
33279;SDS011;20403;43.114;12.434;2023-03-31T11:44:26;25.55;;;4.70;;
33279;SDS011;20403;43.114;12.434;2023-03-31T11:47:01;19.90;;;4.50;;
33279;SDS011;20403;43.114;12.434;2023-03-31T11:49:32;18.67;;;4.88;;
33279;SDS011;20403;43.114;12.434;2023-03-31T11:52:13;23.33;;;5.30;;
33279;SDS011;20403;43.114;12.434;2023-03-31T11:54:43;21.15;;;4.18;;
33279;SDS011;20403;43.114;12.434;2023-03-31T12:05:08;18.83;;;4.72;;
33279;SDS011;20403;43.114;12.434;2023-03-31T12:07:44;24.35;;;5.65;;
33279;SDS011;20403;43.114;12.434;2023-03-31T12:12:53;15.55;;;3.78;;
33279;SDS011;20403;43.114;12.434;2023-03-31T12:15:24;18.83;;;5.05;;
33279;SDS011;20403;43.114;12.434;2023-03-31T12:17:59;23.60;;;4.93;;
33279;SDS011;20403;43.114;12.434;2023-03-31T12:20:38;21.27;;;4.88;;
33279;SDS011;20403;43.114;12.434;2023-03-31T12:23:42;17.25;;;3.70;;
33279;SDS011;20403;43.114;12.434;2023-03-31T12:28:37;15.35;;;4.18;;
33279;SDS011;20403;43.114;12.434;2023-03-31T12:31:06;20.40;;;4.00;;
33279;SDS011;20403;43.114;12.434;2023-03-31T12:39:18;21.70;;;4.63;;
33279;SDS011;20403;43.114;12.434;2023-03-31T12:47:48;23.17;;;5.53;;
33279;SDS011;20403;43.114;12.434;2023-03-31T12:50:31;20.25;;;3.85;;
33279;SDS011;20403;43.114;12.434;2023-03-31T12:55:56;21.42;;;5.10;;
33279;SDS011;20403;43.114;12.434;2023-03-31T13:06:51;15.77;;;4.07;;
33279;SDS011;20403;43.114;12.434;2023-03-31T13:11:44;19.08;;;3.92;;
33279;SDS011;20403;43.114;12.434;2023-03-31T13:16:41;19.45;;;4.32;;
33279;SDS011;20403;43.114;12.434;2023-03-31T13:19:08;19.20;;;4.07;;
33279;SDS011;20403;43.114;12.434;2023-03-31T13:24:31;27.67;;;4.80;;
33279;SDS011;20403;43.114;12.434;2023-03-31T13:27:22;24.05;;;4.82;;
33279;SDS011;20403;43.114;12.434;2023-03-31T13:29:57;17.73;;;4.00;;
33279;SDS011;20403;43.114;12.434;2023-03-31T13:32:23;17.17;;;3.88;;
33279;SDS011;20403;43.114;12.434;2023-03-31T13:35:24;19.55;;;4.28;;
33279;SDS011;20403;43.114;12.434;2023-03-31T13:37:51;22.05;;;4.43;;
33279;SDS011;20403;43.114;12.434;2023-03-31T13:40:50;17.65;;;4.10;;
33279;SDS011;20403;43.114;12.434;2023-03-31T13:43:27;34.42;;;5.38;;
33279;SDS011;20403;43.114;12.434;2023-03-31T13:56:32;19.70;;;4.20;;
33279;SDS011;20403;43.114;12.434;2023-03-31T14:05:24;23.33;;;4.60;;
33279;SDS011;20403;43.114;12.434;2023-03-31T14:07:58;25.58;;;5.32;;
33279;SDS011;20403;43.114;12.434;2023-03-31T14:10:48;20.02;;;4.43;;
33279;SDS011;20403;43.114;12.434;2023-03-31T14:13:15;33.67;;;5.50;;
33279;SDS011;20403;43.114;12.434;2023-03-31T14:15:43;21.50;;;4.15;;
33279;SDS011;20403;43.114;12.434;2023-03-31T14:18:21;23.15;;;4.72;;
33279;SDS011;20403;43.114;12.434;2023-03-31T14:23:41;17.73;;;4.28;;
33279;SDS011;20403;43.114;12.434;2023-03-31T14:26:25;32.63;;;5.10;;
33279;SDS011;20403;43.114;12.434;2023-03-31T14:29:18;17.90;;;4.57;;
33279;SDS011;20403;43.114;12.434;2023-03-31T14:37:12;20.35;;;5.07;;
33279;SDS011;20403;43.114;12.434;2023-03-31T14:39:51;25.52;;;4.18;;
33279;SDS011;20403;43.114;12.434;2023-03-31T14:42:22;19.42;;;4.65;;
33279;SDS011;20403;43.114;12.434;2023-03-31T14:44:54;20.48;;;4.55;;
33279;SDS011;20403;43.114;12.434;2023-03-31T14:47:24;16.30;;;4.00;;
33279;SDS011;20403;43.114;12.434;2023-03-31T14:49:59;28.00;;;4.55;;
33279;SDS011;20403;43.114;12.434;2023-03-31T14:52:28;21.15;;;4.32;;
33279;SDS011;20403;43.114;12.434;2023-03-31T14:54:56;21.73;;;3.90;;
33279;SDS011;20403;43.114;12.434;2023-03-31T14:57:25;22.25;;;4.22;;
33279;SDS011;20403;43.114;12.434;2023-03-31T14:59:55;16.75;;;5.63;;
33279;SDS011;20403;43.114;12.434;2023-03-31T15:02:26;19.13;;;4.93;;
33279;SDS011;20403;43.114;12.434;2023-03-31T15:04:56;21.63;;;4.65;;
33279;SDS011;20403;43.114;12.434;2023-03-31T15:07:22;26.92;;;4.88;;
33279;SDS011;20403;43.114;12.434;2023-03-31T15:09:48;26.70;;;4.85;;
33279;SDS011;20403;43.114;12.434;2023-03-31T15:12:15;23.23;;;5.10;;
33279;SDS011;20403;43.114;12.434;2023-03-31T15:14:45;20.20;;;5.28;;
33279;SDS011;20403;43.114;12.434;2023-03-31T15:17:17;21.88;;;5.20;;
33279;SDS011;20403;43.114;12.434;2023-03-31T15:19:44;18.38;;;4.55;;
33279;SDS011;20403;43.114;12.434;2023-03-31T15:22:10;17.90;;;5.05;;
33279;SDS011;20403;43.114;12.434;2023-03-31T15:24:40;21.52;;;4.85;;
33279;SDS011;20403;43.114;12.434;2023-03-31T15:27:07;22.25;;;5.00;;
33279;SDS011;20403;43.114;12.434;2023-03-31T15:29:54;19.20;;;4.43;;
33279;SDS011;20403;43.114;12.434;2023-03-31T15:34:51;27.92;;;5.13;;
33279;SDS011;20403;43.114;12.434;2023-03-31T15:37:37;35.95;;;5.32;;
33279;SDS011;20403;43.114;12.434;2023-03-31T15:40:09;25.17;;;4.75;;
33279;SDS011;20403;43.114;12.434;2023-03-31T15:42:48;16.60;;;4.85;;
33279;SDS011;20403;43.114;12.434;2023-03-31T15:47:54;25.25;;;6.13;;
33279;SDS011;20403;43.114;12.434;2023-03-31T15:50:20;23.25;;;4.85;;
33279;SDS011;20403;43.114;12.434;2023-03-31T15:52:49;26.35;;;4.97;;
33279;SDS011;20403;43.114;12.434;2023-03-31T15:57:47;27.35;;;6.25;;
33279;SDS011;20403;43.114;12.434;2023-03-31T16:00:39;22.05;;;4.60;;
33279;SDS011;20403;43.114;12.434;2023-03-31T16:03:22;25.30;;;4.60;;
33279;SDS011;20403;43.114;12.434;2023-03-31T16:05:59;25.83;;;5.55;;
33279;SDS011;20403;43.114;12.434;2023-03-31T16:11:08;24.45;;;5.15;;
33279;SDS011;20403;43.114;12.434;2023-03-31T16:13:39;22.20;;;4.90;;
33279;SDS011;20403;43.114;12.434;2023-03-31T16:16:09;26.13;;;5.35;;
33279;SDS011;20403;43.114;12.434;2023-03-31T16:18:41;23.73;;;4.82;;
33279;SDS011;20403;43.114;12.434;2023-03-31T16:21:10;26.88;;;7.18;;
33279;SDS011;20403;43.114;12.434;2023-03-31T16:23:38;25.02;;;5.63;;
33279;SDS011;20403;43.114;12.434;2023-03-31T16:26:05;17.60;;;5.10;;
33279;SDS011;20403;43.114;12.434;2023-03-31T16:28:33;26.80;;;5.38;;
33279;SDS011;20403;43.114;12.434;2023-03-31T16:31:00;26.50;;;5.18;;
33279;SDS011;20403;43.114;12.434;2023-03-31T16:33:26;34.17;;;5.72;;
33279;SDS011;20403;43.114;12.434;2023-03-31T16:35:55;25.95;;;5.57;;
33279;SDS011;20403;43.114;12.434;2023-03-31T16:38:23;22.40;;;5.10;;
33279;SDS011;20403;43.114;12.434;2023-03-31T16:40:51;20.55;;;6.00;;
33279;SDS011;20403;43.114;12.434;2023-03-31T16:45:48;22.60;;;6.80;;
33279;SDS011;20403;43.114;12.434;2023-03-31T16:48:16;26.20;;;6.60;;
33279;SDS011;20403;43.114;12.434;2023-03-31T16:50:46;30.73;;;6.40;;
33279;SDS011;20403;43.114;12.434;2023-03-31T16:53:13;23.52;;;6.22;;
33279;SDS011;20403;43.114;12.434;2023-03-31T16:55:40;22.38;;;6.10;;
33279;SDS011;20403;43.114;12.434;2023-03-31T16:58:06;24.20;;;6.88;;
33279;SDS011;20403;43.114;12.434;2023-03-31T17:00:32;27.55;;;6.38;;
33279;SDS011;20403;43.114;12.434;2023-03-31T17:02:59;28.35;;;6.07;;
33279;SDS011;20403;43.114;12.434;2023-03-31T17:05:26;37.55;;;9.55;;
33279;SDS011;20403;43.114;12.434;2023-03-31T17:07:52;39.10;;;8.48;;
33279;SDS011;20403;43.114;12.434;2023-03-31T17:10:18;31.45;;;5.90;;
33279;SDS011;20403;43.114;12.434;2023-03-31T17:12:45;30.20;;;6.70;;
33279;SDS011;20403;43.114;12.434;2023-03-31T17:15:10;30.10;;;6.78;;
33279;SDS011;20403;43.114;12.434;2023-03-31T17:17:37;25.05;;;5.85;;
33279;SDS011;20403;43.114;12.434;2023-03-31T17:20:03;29.00;;;6.18;;
33279;SDS011;20403;43.114;12.434;2023-03-31T17:22:31;28.85;;;6.32;;
33279;SDS011;20403;43.114;12.434;2023-03-31T17:24:57;33.55;;;7.07;;
33279;SDS011;20403;43.114;12.434;2023-03-31T17:27:23;31.98;;;6.55;;
33279;SDS011;20403;43.114;12.434;2023-03-31T17:29:49;23.23;;;6.30;;
33279;SDS011;20403;43.114;12.434;2023-03-31T17:32:15;35.35;;;7.07;;
33279;SDS011;20403;43.114;12.434;2023-03-31T17:34:41;29.63;;;8.15;;